sensor_id;sensor_type;location;lat;lon;timestamp;temperature;humidity
23755;DHT22;12057;52.042;6.830;2022-08-27T00:01:26;18.30;99.90
23755;DHT22;12057;52.042;6.830;2022-08-27T00:06:27;18.30;99.90
23755;DHT22;12057;52.042;6.830;2022-08-27T00:11:28;18.30;99.90
23755;DHT22;12057;52.042;6.830;2022-08-27T00:16:28;18.20;99.90
23755;DHT22;12057;52.042;6.830;2022-08-27T00:21:29;18.20;99.90
23755;DHT22;12057;52.042;6.830;2022-08-27T00:26:32;18.20;99.90
23755;DHT22;12057;52.042;6.830;2022-08-27T00:31:33;18.20;99.90
23755;DHT22;12057;52.042;6.830;2022-08-27T00:36:34;18.30;99.90
23755;DHT22;12057;52.042;6.830;2022-08-27T00:41:35;18.20;99.90
23755;DHT22;12057;52.042;6.830;2022-08-27T00:46:48;18.20;99.90
23755;DHT22;12057;52.042;6.830;2022-08-27T00:51:54;18.20;99.90
23755;DHT22;12057;52.042;6.830;2022-08-27T00:56:56;18.20;99.90
23755;DHT22;12057;52.042;6.830;2022-08-27T01:01:58;18.10;99.90
23755;DHT22;12057;52.042;6.830;2022-08-27T01:07:18;18.10;99.90
23755;DHT22;12057;52.042;6.830;2022-08-27T01:12:19;18.10;99.90
23755;DHT22;12057;52.042;6.830;2022-08-27T01:17:20;18.10;99.90
23755;DHT22;12057;52.042;6.830;2022-08-27T01:22:25;18.00;99.90
23755;DHT22;12057;52.042;6.830;2022-08-27T01:27:29;18.10;99.90
23755;DHT22;12057;52.042;6.830;2022-08-27T01:32:34;18.00;99.90
23755;DHT22;12057;52.042;6.830;2022-08-27T01:37:34;18.00;99.90
23755;DHT22;12057;52.042;6.830;2022-08-27T01:42:37;18.00;99.90
23755;DHT22;12057;52.042;6.830;2022-08-27T01:47:38;18.00;99.90
23755;DHT22;12057;52.042;6.830;2022-08-27T01:52:39;18.00;99.90
23755;DHT22;12057;52.042;6.830;2022-08-27T01:57:40;17.90;99.90
23755;DHT22;12057;52.042;6.830;2022-08-27T02:02:41;18.00;99.90
23755;DHT22;12057;52.042;6.830;2022-08-27T02:07:43;17.90;99.90
23755;DHT22;12057;52.042;6.830;2022-08-27T02:12:44;17.90;99.90
23755;DHT22;12057;52.042;6.830;2022-08-27T02:17:45;17.90;99.90
23755;DHT22;12057;52.042;6.830;2022-08-27T02:22:46;17.80;99.90
23755;DHT22;12057;52.042;6.830;2022-08-27T02:27:47;17.80;99.90
23755;DHT22;12057;52.042;6.830;2022-08-27T02:32:47;17.80;99.90
23755;DHT22;12057;52.042;6.830;2022-08-27T02:37:48;17.80;99.90
23755;DHT22;12057;52.042;6.830;2022-08-27T02:42:49;17.70;99.90
23755;DHT22;12057;52.042;6.830;2022-08-27T02:47:50;17.70;99.90
23755;DHT22;12057;52.042;6.830;2022-08-27T02:52:51;17.60;99.90
23755;DHT22;12057;52.042;6.830;2022-08-27T02:57:51;17.60;99.90
23755;DHT22;12057;52.042;6.830;2022-08-27T03:02:52;17.60;99.90
23755;DHT22;12057;52.042;6.830;2022-08-27T03:07:53;17.60;99.90
23755;DHT22;12057;52.042;6.830;2022-08-27T03:12:53;17.50;99.90
23755;DHT22;12057;52.042;6.830;2022-08-27T03:17:54;17.40;99.90
23755;DHT22;12057;52.042;6.830;2022-08-27T03:23:13;17.30;99.90
23755;DHT22;12057;52.042;6.830;2022-08-27T03:28:14;17.30;99.90
23755;DHT22;12057;52.042;6.830;2022-08-27T03:33:17;17.20;99.90
23755;DHT22;12057;52.042;6.830;2022-08-27T03:38:19;17.10;99.90
23755;DHT22;12057;52.042;6.830;2022-08-27T03:43:20;17.00;99.90
23755;DHT22;12057;52.042;6.830;2022-08-27T03:48:24;16.90;99.90
23755;DHT22;12057;52.042;6.830;2022-08-27T03:53:25;16.90;99.90
23755;DHT22;12057;52.042;6.830;2022-08-27T03:58:25;16.80;99.90
23755;DHT22;12057;52.042;6.830;2022-08-27T04:03:26;16.60;99.90
23755;DHT22;12057;52.042;6.830;2022-08-27T04:08:27;16.60;99.90
23755;DHT22;12057;52.042;6.830;2022-08-27T04:13:28;16.40;99.90
23755;DHT22;12057;52.042;6.830;2022-08-27T04:18:29;16.40;99.90
23755;DHT22;12057;52.042;6.830;2022-08-27T04:23:29;16.40;99.90
23755;DHT22;12057;52.042;6.830;2022-08-27T04:28:30;16.40;99.90
23755;DHT22;12057;52.042;6.830;2022-08-27T04:33:31;16.40;99.90
23755;DHT22;12057;52.042;6.830;2022-08-27T04:38:32;16.30;99.90
23755;DHT22;12057;52.042;6.830;2022-08-27T04:43:32;16.20;99.90
23755;DHT22;12057;52.042;6.830;2022-08-27T04:48:33;16.20;99.90
23755;DHT22;12057;52.042;6.830;2022-08-27T04:53:34;16.20;99.90
23755;DHT22;12057;52.042;6.830;2022-08-27T04:58:35;16.20;99.90
23755;DHT22;12057;52.042;6.830;2022-08-27T05:03:35;16.20;99.90
23755;DHT22;12057;52.042;6.830;2022-08-27T05:08:36;16.10;99.90
23755;DHT22;12057;52.042;6.830;2022-08-27T05:13:37;16.20;99.90
23755;DHT22;12057;52.042;6.830;2022-08-27T05:18:38;16.20;99.90
23755;DHT22;12057;52.042;6.830;2022-08-27T05:23:39;16.20;99.90
23755;DHT22;12057;52.042;6.830;2022-08-27T05:28:39;16.20;99.90
23755;DHT22;12057;52.042;6.830;2022-08-27T05:33:41;16.10;99.90
23755;DHT22;12057;52.042;6.830;2022-08-27T05:38:41;16.20;99.90
23755;DHT22;12057;52.042;6.830;2022-08-27T05:43:43;16.20;99.90
23755;DHT22;12057;52.042;6.830;2022-08-27T05:48:43;16.10;99.90
23755;DHT22;12057;52.042;6.830;2022-08-27T05:53:44;16.00;99.90
23755;DHT22;12057;52.042;6.830;2022-08-27T05:58:45;15.90;99.90
23755;DHT22;12057;52.042;6.830;2022-08-27T06:04:04;16.00;99.90
23755;DHT22;12057;52.042;6.830;2022-08-27T06:09:05;15.90;99.90
23755;DHT22;12057;52.042;6.830;2022-08-27T06:14:06;16.00;99.90
23755;DHT22;12057;52.042;6.830;2022-08-27T06:19:08;16.10;99.90
23755;DHT22;12057;52.042;6.830;2022-08-27T06:24:11;16.30;99.90
23755;DHT22;12057;52.042;6.830;2022-08-27T06:29:12;16.70;99.90
23755;DHT22;12057;52.042;6.830;2022-08-27T06:34:13;16.90;99.90
23755;DHT22;12057;52.042;6.830;2022-08-27T06:39:14;17.00;99.90
23755;DHT22;12057;52.042;6.830;2022-08-27T06:44:15;17.20;99.90
23755;DHT22;12057;52.042;6.830;2022-08-27T06:49:16;17.40;99.90
23755;DHT22;12057;52.042;6.830;2022-08-27T06:54:16;17.40;99.90
23755;DHT22;12057;52.042;6.830;2022-08-27T06:59:19;17.70;99.90
23755;DHT22;12057;52.042;6.830;2022-08-27T07:04:21;17.80;99.90
23755;DHT22;12057;52.042;6.830;2022-08-27T07:09:22;17.90;99.90
23755;DHT22;12057;52.042;6.830;2022-08-27T07:14:24;18.00;99.90
23755;DHT22;12057;52.042;6.830;2022-08-27T07:19:24;18.10;99.90
23755;DHT22;12057;52.042;6.830;2022-08-27T07:24:27;18.20;99.90
23755;DHT22;12057;52.042;6.830;2022-08-27T07:29:28;18.20;99.90
23755;DHT22;12057;52.042;6.830;2022-08-27T07:34:29;18.50;99.90
23755;DHT22;12057;52.042;6.830;2022-08-27T07:39:29;18.90;99.90
23755;DHT22;12057;52.042;6.830;2022-08-27T07:44:30;19.00;99.90
23755;DHT22;12057;52.042;6.830;2022-08-27T07:49:31;19.30;99.90
23755;DHT22;12057;52.042;6.830;2022-08-27T07:54:34;19.50;99.90
23755;DHT22;12057;52.042;6.830;2022-08-27T07:59:35;19.70;99.90
23755;DHT22;12057;52.042;6.830;2022-08-27T08:04:35;19.90;99.90
23755;DHT22;12057;52.042;6.830;2022-08-27T08:09:39;20.30;99.90
23755;DHT22;12057;52.042;6.830;2022-08-27T08:14:40;20.70;99.90
23755;DHT22;12057;52.042;6.830;2022-08-27T08:19:40;21.00;99.90
23755;DHT22;12057;52.042;6.830;2022-08-27T08:24:41;21.50;99.90
23755;DHT22;12057;52.042;6.830;2022-08-27T08:29:42;21.70;99.90
23755;DHT22;12057;52.042;6.830;2022-08-27T08:34:43;22.10;99.90
23755;DHT22;12057;52.042;6.830;2022-08-27T08:39:43;22.50;99.90
23755;DHT22;12057;52.042;6.830;2022-08-27T08:44:45;22.90;99.90
23755;DHT22;12057;52.042;6.830;2022-08-27T08:49:55;23.10;99.90
23755;DHT22;12057;52.042;6.830;2022-08-27T08:55:02;23.50;99.90
23755;DHT22;12057;52.042;6.830;2022-08-27T09:00:06;23.70;99.90
23755;DHT22;12057;52.042;6.830;2022-08-27T09:05:11;23.30;99.90
23755;DHT22;12057;52.042;6.830;2022-08-27T09:15:19;23.10;99.90
23755;DHT22;12057;52.042;6.830;2022-08-27T09:20:21;23.60;99.90
23755;DHT22;12057;52.042;6.830;2022-08-27T09:30:24;23.20;99.90
23755;DHT22;12057;52.042;6.830;2022-08-27T09:35:25;23.10;99.90
23755;DHT22;12057;52.042;6.830;2022-08-27T09:40:30;23.50;99.90
23755;DHT22;12057;52.042;6.830;2022-08-27T09:45:32;24.00;99.90
23755;DHT22;12057;52.042;6.830;2022-08-27T09:50:46;24.00;99.90
23755;DHT22;12057;52.042;6.830;2022-08-27T09:55:48;24.40;99.80
23755;DHT22;12057;52.042;6.830;2022-08-27T10:01:04;24.10;97.60
23755;DHT22;12057;52.042;6.830;2022-08-27T10:06:05;23.80;99.30
23755;DHT22;12057;52.042;6.830;2022-08-27T10:11:14;23.70;97.90
23755;DHT22;12057;52.042;6.830;2022-08-27T10:16:22;23.40;98.50
23755;DHT22;12057;52.042;6.830;2022-08-27T10:21:33;23.40;99.90
23755;DHT22;12057;52.042;6.830;2022-08-27T10:26:43;24.30;97.40
23755;DHT22;12057;52.042;6.830;2022-08-27T10:31:53;23.60;97.20
23755;DHT22;12057;52.042;6.830;2022-08-27T10:37:21;23.60;96.70
23755;DHT22;12057;52.042;6.830;2022-08-27T10:42:29;24.60;96.60
23755;DHT22;12057;52.042;6.830;2022-08-27T10:58:04;24.50;95.30
23755;DHT22;12057;52.042;6.830;2022-08-27T11:03:10;25.30;94.10
23755;DHT22;12057;52.042;6.830;2022-08-27T11:13:21;24.30;95.20
23755;DHT22;12057;52.042;6.830;2022-08-27T11:18:36;23.90;96.20
23755;DHT22;12057;52.042;6.830;2022-08-27T11:23:40;23.80;97.40
23755;DHT22;12057;52.042;6.830;2022-08-27T11:29:17;23.70;97.80
23755;DHT22;12057;52.042;6.830;2022-08-27T11:44:21;23.60;96.80
23755;DHT22;12057;52.042;6.830;2022-08-27T11:49:24;23.80;96.20
23755;DHT22;12057;52.042;6.830;2022-08-27T11:54:29;24.40;94.90
23755;DHT22;12057;52.042;6.830;2022-08-27T11:59:31;24.30;94.40
23755;DHT22;12057;52.042;6.830;2022-08-27T12:04:34;24.00;94.60
23755;DHT22;12057;52.042;6.830;2022-08-27T12:15:02;23.60;96.80
23755;DHT22;12057;52.042;6.830;2022-08-27T12:25:20;23.00;95.70
23755;DHT22;12057;52.042;6.830;2022-08-27T12:30:25;22.90;97.00
23755;DHT22;12057;52.042;6.830;2022-08-27T12:35:30;23.10;97.20
23755;DHT22;12057;52.042;6.830;2022-08-27T12:40:40;23.30;95.90
23755;DHT22;12057;52.042;6.830;2022-08-27T12:45:51;23.60;96.90
23755;DHT22;12057;52.042;6.830;2022-08-27T12:50:56;23.50;95.10
23755;DHT22;12057;52.042;6.830;2022-08-27T13:01:15;23.70;96.60
23755;DHT22;12057;52.042;6.830;2022-08-27T13:06:29;23.80;97.40
23755;DHT22;12057;52.042;6.830;2022-08-27T13:11:32;23.60;95.40
23755;DHT22;12057;52.042;6.830;2022-08-27T13:16:33;23.50;97.20
23755;DHT22;12057;52.042;6.830;2022-08-27T13:21:33;23.60;96.90
23755;DHT22;12057;52.042;6.830;2022-08-27T13:26:35;23.60;95.80
23755;DHT22;12057;52.042;6.830;2022-08-27T13:31:37;23.60;96.00
23755;DHT22;12057;52.042;6.830;2022-08-27T13:36:58;23.80;94.90
23755;DHT22;12057;52.042;6.830;2022-08-27T13:42:02;23.90;96.20
23755;DHT22;12057;52.042;6.830;2022-08-27T13:47:04;23.90;96.60
23755;DHT22;12057;52.042;6.830;2022-08-27T13:57:27;23.90;96.70
23755;DHT22;12057;52.042;6.830;2022-08-27T14:02:30;24.00;95.80
23755;DHT22;12057;52.042;6.830;2022-08-27T14:07:33;24.00;94.40
23755;DHT22;12057;52.042;6.830;2022-08-27T14:12:39;23.80;95.70
23755;DHT22;12057;52.042;6.830;2022-08-27T14:17:40;23.60;97.50
23755;DHT22;12057;52.042;6.830;2022-08-27T14:22:41;23.40;97.60
23755;DHT22;12057;52.042;6.830;2022-08-27T14:27:42;23.20;97.70
23755;DHT22;12057;52.042;6.830;2022-08-27T14:32:43;23.40;96.70
23755;DHT22;12057;52.042;6.830;2022-08-27T14:37:44;23.50;95.90
23755;DHT22;12057;52.042;6.830;2022-08-27T14:42:45;23.30;96.40
23755;DHT22;12057;52.042;6.830;2022-08-27T14:47:45;23.30;96.10
23755;DHT22;12057;52.042;6.830;2022-08-27T14:52:46;23.30;97.20
23755;DHT22;12057;52.042;6.830;2022-08-27T14:57:47;23.20;97.10
23755;DHT22;12057;52.042;6.830;2022-08-27T15:02:48;23.10;97.40
23755;DHT22;12057;52.042;6.830;2022-08-27T15:07:48;23.00;98.20
23755;DHT22;12057;52.042;6.830;2022-08-27T15:12:49;22.90;97.80
23755;DHT22;12057;52.042;6.830;2022-08-27T15:17:50;22.90;97.70
23755;DHT22;12057;52.042;6.830;2022-08-27T15:22:51;22.90;97.70
23755;DHT22;12057;52.042;6.830;2022-08-27T15:27:52;22.80;97.50
23755;DHT22;12057;52.042;6.830;2022-08-27T15:32:52;22.70;97.40
23755;DHT22;12057;52.042;6.830;2022-08-27T15:37:54;22.70;97.60
23755;DHT22;12057;52.042;6.830;2022-08-27T15:42:56;22.70;98.30
23755;DHT22;12057;52.042;6.830;2022-08-27T15:47:58;22.70;97.00
23755;DHT22;12057;52.042;6.830;2022-08-27T15:53:04;22.70;97.10
23755;DHT22;12057;52.042;6.830;2022-08-27T15:58:05;22.70;97.30
23755;DHT22;12057;52.042;6.830;2022-08-27T16:03:09;22.60;97.30
23755;DHT22;12057;52.042;6.830;2022-08-27T16:08:10;22.50;97.10
23755;DHT22;12057;52.042;6.830;2022-08-27T16:13:11;22.40;98.30
23755;DHT22;12057;52.042;6.830;2022-08-27T16:18:12;22.30;97.90
23755;DHT22;12057;52.042;6.830;2022-08-27T16:23:12;22.20;97.90
23755;DHT22;12057;52.042;6.830;2022-08-27T16:28:13;22.20;98.90
23755;DHT22;12057;52.042;6.830;2022-08-27T16:33:14;22.20;98.00
23755;DHT22;12057;52.042;6.830;2022-08-27T16:38:14;22.20;98.00
23755;DHT22;12057;52.042;6.830;2022-08-27T16:43:21;22.20;98.30
23755;DHT22;12057;52.042;6.830;2022-08-27T16:48:22;22.00;98.20
23755;DHT22;12057;52.042;6.830;2022-08-27T16:53:42;21.90;97.40
23755;DHT22;12057;52.042;6.830;2022-08-27T16:58:44;21.80;97.30
23755;DHT22;12057;52.042;6.830;2022-08-27T17:03:46;21.80;98.10
23755;DHT22;12057;52.042;6.830;2022-08-27T17:08:47;21.80;97.10
23755;DHT22;12057;52.042;6.830;2022-08-27T17:13:49;21.80;97.90
23755;DHT22;12057;52.042;6.830;2022-08-27T17:18:50;21.80;98.50
23755;DHT22;12057;52.042;6.830;2022-08-27T17:23:52;21.70;97.60
23755;DHT22;12057;52.042;6.830;2022-08-27T17:28:53;21.60;97.20
23755;DHT22;12057;52.042;6.830;2022-08-27T17:33:55;21.60;97.30
23755;DHT22;12057;52.042;6.830;2022-08-27T17:38:56;21.50;97.80
23755;DHT22;12057;52.042;6.830;2022-08-27T17:43:58;21.40;97.40
23755;DHT22;12057;52.042;6.830;2022-08-27T17:48:58;21.30;98.00
23755;DHT22;12057;52.042;6.830;2022-08-27T17:53:59;21.20;97.70
23755;DHT22;12057;52.042;6.830;2022-08-27T17:59:00;21.20;98.60
23755;DHT22;12057;52.042;6.830;2022-08-27T18:04:00;21.20;99.20
23755;DHT22;12057;52.042;6.830;2022-08-27T18:09:01;21.10;98.40
23755;DHT22;12057;52.042;6.830;2022-08-27T18:14:02;21.00;98.50
23755;DHT22;12057;52.042;6.830;2022-08-27T18:19:03;20.90;98.30
23755;DHT22;12057;52.042;6.830;2022-08-27T18:24:04;20.90;98.50
23755;DHT22;12057;52.042;6.830;2022-08-27T18:29:05;20.80;99.00
23755;DHT22;12057;52.042;6.830;2022-08-27T18:34:06;20.70;98.90
23755;DHT22;12057;52.042;6.830;2022-08-27T18:39:06;20.60;99.30
23755;DHT22;12057;52.042;6.830;2022-08-27T18:44:07;20.60;99.60
23755;DHT22;12057;52.042;6.830;2022-08-27T18:49:08;20.50;99.90
23755;DHT22;12057;52.042;6.830;2022-08-27T18:54:10;20.30;99.60
23755;DHT22;12057;52.042;6.830;2022-08-27T18:59:10;20.30;99.90
23755;DHT22;12057;52.042;6.830;2022-08-27T19:04:12;20.20;99.90
23755;DHT22;12057;52.042;6.830;2022-08-27T19:09:13;20.10;99.90
23755;DHT22;12057;52.042;6.830;2022-08-27T19:14:15;19.90;99.90
23755;DHT22;12057;52.042;6.830;2022-08-27T19:19:16;19.80;99.90
23755;DHT22;12057;52.042;6.830;2022-08-27T19:24:18;19.70;99.90
23755;DHT22;12057;52.042;6.830;2022-08-27T19:29:19;19.60;99.90
23755;DHT22;12057;52.042;6.830;2022-08-27T19:34:20;19.50;99.90
23755;DHT22;12057;52.042;6.830;2022-08-27T19:39:22;19.30;99.90
23755;DHT22;12057;52.042;6.830;2022-08-27T19:44:22;19.20;99.90
23755;DHT22;12057;52.042;6.830;2022-08-27T19:49:24;19.10;99.90
23755;DHT22;12057;52.042;6.830;2022-08-27T19:54:24;19.10;99.90
23755;DHT22;12057;52.042;6.830;2022-08-27T19:59:25;18.90;99.90
23755;DHT22;12057;52.042;6.830;2022-08-27T20:04:25;18.80;99.90
23755;DHT22;12057;52.042;6.830;2022-08-27T20:09:26;18.80;99.90
23755;DHT22;12057;52.042;6.830;2022-08-27T20:14:27;18.60;99.90
23755;DHT22;12057;52.042;6.830;2022-08-27T20:19:27;18.50;99.90
23755;DHT22;12057;52.042;6.830;2022-08-27T20:24:28;18.50;99.90
23755;DHT22;12057;52.042;6.830;2022-08-27T20:29:29;18.30;99.90
23755;DHT22;12057;52.042;6.830;2022-08-27T20:34:30;18.20;99.90
23755;DHT22;12057;52.042;6.830;2022-08-27T20:39:33;18.10;99.90
23755;DHT22;12057;52.042;6.830;2022-08-27T20:44:34;18.00;99.90
23755;DHT22;12057;52.042;6.830;2022-08-27T20:49:35;17.90;99.90
23755;DHT22;12057;52.042;6.830;2022-08-27T20:54:37;17.80;99.90
23755;DHT22;12057;52.042;6.830;2022-08-27T20:59:37;17.70;99.90
23755;DHT22;12057;52.042;6.830;2022-08-27T21:04:56;17.50;99.90
23755;DHT22;12057;52.042;6.830;2022-08-27T21:09:57;17.50;99.90
23755;DHT22;12057;52.042;6.830;2022-08-27T21:15:01;17.40;99.90
23755;DHT22;12057;52.042;6.830;2022-08-27T21:20:04;17.30;99.90
23755;DHT22;12057;52.042;6.830;2022-08-27T21:25:07;17.20;99.90
23755;DHT22;12057;52.042;6.830;2022-08-27T21:30:09;17.00;99.90
23755;DHT22;12057;52.042;6.830;2022-08-27T21:35:10;16.80;99.90
23755;DHT22;12057;52.042;6.830;2022-08-27T21:40:14;16.70;99.90
23755;DHT22;12057;52.042;6.830;2022-08-27T21:45:19;16.60;99.90
23755;DHT22;12057;52.042;6.830;2022-08-27T21:50:20;16.50;99.90
23755;DHT22;12057;52.042;6.830;2022-08-27T21:55:21;16.40;99.90
23755;DHT22;12057;52.042;6.830;2022-08-27T22:05:22;16.20;99.90
23755;DHT22;12057;52.042;6.830;2022-08-27T22:10:23;16.10;99.90
23755;DHT22;12057;52.042;6.830;2022-08-27T22:15:24;15.90;99.90
23755;DHT22;12057;52.042;6.830;2022-08-27T22:20:25;15.80;99.90
23755;DHT22;12057;52.042;6.830;2022-08-27T22:25:26;15.70;99.90
23755;DHT22;12057;52.042;6.830;2022-08-27T22:30:27;15.80;99.90
23755;DHT22;12057;52.042;6.830;2022-08-27T22:35:28;15.80;99.90
23755;DHT22;12057;52.042;6.830;2022-08-27T22:40:30;15.70;99.90
23755;DHT22;12057;52.042;6.830;2022-08-27T22:45:31;15.70;99.90
23755;DHT22;12057;52.042;6.830;2022-08-27T22:50:33;15.80;99.90
23755;DHT22;12057;52.042;6.830;2022-08-27T22:55:34;15.60;99.90
23755;DHT22;12057;52.042;6.830;2022-08-27T23:00:35;15.60;99.90
23755;DHT22;12057;52.042;6.830;2022-08-27T23:05:37;15.60;99.90
23755;DHT22;12057;52.042;6.830;2022-08-27T23:10:38;15.50;99.90
23755;DHT22;12057;52.042;6.830;2022-08-27T23:15:39;15.40;99.90
23755;DHT22;12057;52.042;6.830;2022-08-27T23:20:40;15.20;99.90
23755;DHT22;12057;52.042;6.830;2022-08-27T23:25:40;15.20;99.90
23755;DHT22;12057;52.042;6.830;2022-08-27T23:31:00;15.00;99.90
23755;DHT22;12057;52.042;6.830;2022-08-27T23:36:01;15.00;99.90
23755;DHT22;12057;52.042;6.830;2022-08-27T23:41:02;14.90;99.90
23755;DHT22;12057;52.042;6.830;2022-08-27T23:46:03;14.90;99.90
23755;DHT22;12057;52.042;6.830;2022-08-27T23:51:04;15.00;99.90
23755;DHT22;12057;52.042;6.830;2022-08-27T23:56:05;15.10;99.90
